Time;durP1;ratioP1;P1;durP2;ratioP2;P2;SDS_P1;SDS_P2;PMS_P1;PMS_P2;Temp;Humidity;BMP_temperature;BMP_pressure;BME280_temperature;BME280_humidity;BME280_pressure;Samples;Min_cycle;Max_cycle;Signal;HPM_P1;HPM_P2
2021/03/12 00:00:23;;;;;;;5.93;4.37;;;;;;;;;;4950011;29;20453;-65
2021/03/12 00:02:49;;;;;;;5.43;3.90;;;;;;;;;;4953594;29;20461;-65
2021/03/12 00:05:17;;;;;;;6.70;4.50;;;;;;;;;;4953005;29;20560;-65
2021/03/12 00:07:44;;;;;;;5.50;4.23;;;;;;;;;;4952846;29;20528;-65
2021/03/12 00:10:11;;;;;;;6.57;4.20;;;;;;;;;;4953624;29;20491;-64
2021/03/12 00:12:38;;;;;;;4.83;3.77;;;;;;;;;;4953558;29;20547;-64
2021/03/12 00:15:06;;;;;;;7.20;4.17;;;;;;;;;;4953252;29;20825;-63
2021/03/12 00:17:33;;;;;;;5.87;3.50;;;;;;;;;;4951411;28;20964;-63
2021/03/12 00:20:00;;;;;;;7.67;3.60;;;;;;;;;;4954099;29;20449;-64
2021/03/12 00:22:26;;;;;;;5.83;3.60;;;;;;;;;;4953548;29;20460;-64
2021/03/12 00:24:54;;;;;;;3.57;3.23;;;;;;;;;;4953737;29;20472;-64
2021/03/12 00:27:20;;;;;;;6.50;3.80;;;;;;;;;;4952854;29;21003;-63
2021/03/12 00:29:47;;;;;;;4.80;3.10;;;;;;;;;;4953357;29;20484;-64
2021/03/12 00:32:14;;;;;;;3.10;2.80;;;;;;;;;;4952199;29;20460;-64
2021/03/12 00:34:40;;;;;;;4.23;3.20;;;;;;;;;;4959843;28;20469;-64
2021/03/12 00:37:07;;;;;;;3.27;2.97;;;;;;;;;;4949581;28;20498;-64
2021/03/12 00:39:34;;;;;;;4.50;3.47;;;;;;;;;;4953365;29;20511;-64
2021/03/12 00:42:02;;;;;;;3.77;3.40;;;;;;;;;;4952933;29;20456;-63
2021/03/12 00:44:28;;;;;;;4.00;3.43;;;;;;;;;;4953382;29;21014;-64
2021/03/12 00:46:55;;;;;;;5.10;3.20;;;;;;;;;;4953007;29;20452;-63
2021/03/12 00:49:22;;;;;;;4.83;3.40;;;;;;;;;;4953536;28;20463;-64
2021/03/12 00:51:48;;;;;;;5.77;3.20;;;;;;;;;;4953248;29;20817;-64
2021/03/12 00:54:15;;;;;;;5.13;3.43;;;;;;;;;;4953385;29;20480;-63
2021/03/12 00:56:42;;;;;;;3.70;3.13;;;;;;;;;;4952834;29;20510;-63
2021/03/12 00:59:09;;;;;;;5.73;3.30;;;;;;;;;;4953367;29;20456;-63
2021/03/12 01:01:36;;;;;;;3.90;2.93;;;;;;;;;;4952461;29;20515;-64
2021/03/12 01:04:02;;;;;;;3.37;3.07;;;;;;;;;;4953522;28;20523;-63
2021/03/12 01:06:29;;;;;;;3.40;3.07;;;;;;;;;;4945816;29;20483;-63
2021/03/12 01:08:56;;;;;;;3.87;3.53;;;;;;;;;;4936868;29;20456;-64
2021/03/12 01:11:22;;;;;;;7.80;4.10;;;;;;;;;;4953503;29;20870;-63
2021/03/12 01:13:49;;;;;;;4.13;3.10;;;;;;;;;;4952463;29;20487;-63
2021/03/12 01:16:17;;;;;;;4.33;3.50;;;;;;;;;;4952809;29;20551;-63
2021/03/12 01:18:43;;;;;;;3.90;3.10;;;;;;;;;;4953275;28;20543;-64
2021/03/12 01:21:10;;;;;;;6.33;3.27;;;;;;;;;;4952773;29;20452;-64
2021/03/12 01:23:36;;;;;;;4.43;3.33;;;;;;;;;;4953071;29;20551;-63
2021/03/12 01:26:04;;;;;;;5.33;3.43;;;;;;;;;;4951709;29;20456;-63
2021/03/12 01:28:30;;;;;;;7.23;3.33;;;;;;;;;;4954320;28;20452;-64
2021/03/12 01:30:57;;;;;;;5.57;3.30;;;;;;;;;;4950347;29;20488;-63
2021/03/12 01:33:24;;;;;;;4.40;3.50;;;;;;;;;;4956489;28;20467;-63
2021/03/12 01:35:51;;;;;;;5.60;3.60;;;;;;;;;;4956354;29;20534;-63
2021/03/12 01:38:18;;;;;;;7.00;3.60;;;;;;;;;;4948893;29;20457;-63
2021/03/12 01:40:46;;;;;;;6.37;3.70;;;;;;;;;;4940131;29;20986;-64
2021/03/12 01:43:13;;;;;;;7.43;4.37;;;;;;;;;;4950251;29;20548;-64
2021/03/12 01:45:40;;;;;;;6.47;3.97;;;;;;;;;;4944743;29;20819;-63
2021/03/12 01:48:08;;;;;;;6.73;3.50;;;;;;;;;;4954139;28;20999;-63
2021/03/12 01:50:35;;;;;;;6.87;3.60;;;;;;;;;;4953422;29;20858;-63
2021/03/12 01:53:02;;;;;;;8.30;3.80;;;;;;;;;;4956161;29;20448;-64
2021/03/12 01:55:31;;;;;;;5.37;3.80;;;;;;;;;;4984115;23;20520;-63
2021/03/12 01:57:58;;;;;;;6.63;4.10;;;;;;;;;;4973824;28;20462;-63
2021/03/12 02:00:25;;;;;;;5.17;3.60;;;;;;;;;;4975010;28;20458;-63
2021/03/12 02:02:51;;;;;;;9.70;4.00;;;;;;;;;;4974811;28;20462;-63
2021/03/12 02:05:18;;;;;;;9.07;3.57;;;;;;;;;;4975008;28;20526;-63
2021/03/12 02:07:46;;;;;;;8.50;3.67;;;;;;;;;;4975085;28;20542;-63
2021/03/12 02:10:14;;;;;;;5.57;3.57;;;;;;;;;;4974796;28;20938;-64
2021/03/12 02:12:46;;;;;;;6.67;3.70;;;;;;;;;;4974854;28;20962;-63
2021/03/12 02:15:14;;;;;;;7.50;3.73;;;;;;;;;;4974352;28;20566;-63
2021/03/12 02:17:42;;;;;;;5.20;4.07;;;;;;;;;;4991429;28;20455;-63
2021/03/12 02:20:27;;;;;;;7.27;3.90;;;;;;;;;;4975953;28;20456;-63
2021/03/12 02:23:00;;;;;;;5.30;4.43;;;;;;;;;;4975169;28;20467;-63
2021/03/12 02:25:27;;;;;;;5.83;4.00;;;;;;;;;;4973796;28;20475;-63
2021/03/12 02:27:55;;;;;;;6.93;3.93;;;;;;;;;;4974762;28;20452;-63
2021/03/12 02:30:22;;;;;;;7.33;4.20;;;;;;;;;;4974375;28;20479;-63
2021/03/12 02:32:50;;;;;;;6.33;4.20;;;;;;;;;;4974113;28;20458;-63
2021/03/12 02:35:17;;;;;;;9.00;4.20;;;;;;;;;;4974695;28;20815;-63
2021/03/12 02:37:44;;;;;;;8.40;4.40;;;;;;;;;;4974750;28;20455;-63
2021/03/12 02:40:12;;;;;;;8.53;4.57;;;;;;;;;;4973767;28;20455;-63
2021/03/12 02:42:40;;;;;;;6.27;4.60;;;;;;;;;;4974818;28;20513;-63
2021/03/12 02:45:08;;;;;;;9.10;4.30;;;;;;;;;;4974063;28;20471;-63
2021/03/12 02:47:34;;;;;;;6.13;4.80;;;;;;;;;;4973985;28;20447;-64
2021/03/12 02:50:01;;;;;;;9.20;4.53;;;;;;;;;;4975086;28;20574;-64
2021/03/12 02:52:28;;;;;;;7.50;4.47;;;;;;;;;;4974784;28;20538;-64
2021/03/12 02:54:55;;;;;;;8.63;4.30;;;;;;;;;;4974265;28;20490;-64
2021/03/12 02:57:22;;;;;;;7.47;4.30;;;;;;;;;;4972430;28;20826;-64
2021/03/12 02:59:51;;;;;;;9.40;4.97;;;;;;;;;;4974118;28;20954;-64
2021/03/12 03:02:19;;;;;;;10.10;5.27;;;;;;;;;;4974092;28;20476;-64
2021/03/12 03:04:46;;;;;;;11.23;4.80;;;;;;;;;;4977128;28;20479;-63
2021/03/12 03:07:14;;;;;;;11.57;5.40;;;;;;;;;;4973688;28;20544;-63
2021/03/12 03:09:42;;;;;;;8.50;4.90;;;;;;;;;;4974101;28;20570;-63
2021/03/12 03:12:10;;;;;;;7.93;4.83;;;;;;;;;;4973833;28;20451;-63
2021/03/12 03:14:37;;;;;;;7.23;5.07;;;;;;;;;;4974475;28;20481;-64
2021/03/12 03:17:06;;;;;;;12.83;6.23;;;;;;;;;;4973803;28;20974;-63
2021/03/12 03:19:35;;;;;;;7.83;5.57;;;;;;;;;;4973622;28;20455;-63
2021/03/12 03:22:02;;;;;;;10.73;5.47;;;;;;;;;;4974012;28;20455;-63
2021/03/12 03:24:29;;;;;;;11.83;6.20;;;;;;;;;;4973509;28;20459;-63
2021/03/12 03:26:56;;;;;;;14.27;5.77;;;;;;;;;;4973440;28;21094;-63
2021/03/12 03:29:23;;;;;;;10.50;6.33;;;;;;;;;;4974148;28;20539;-63
2021/03/12 03:31:50;;;;;;;10.77;6.33;;;;;;;;;;4973510;28;21046;-63
2021/03/12 03:34:17;;;;;;;8.87;6.20;;;;;;;;;;4973755;28;20562;-63
2021/03/12 03:36:45;;;;;;;11.83;6.40;;;;;;;;;;4973053;28;20456;-63
2021/03/12 03:39:12;;;;;;;9.17;6.13;;;;;;;;;;4973775;28;20451;-63
2021/03/12 03:41:40;;;;;;;11.70;6.43;;;;;;;;;;4973264;28;20451;-63
2021/03/12 03:44:07;;;;;;;13.77;6.50;;;;;;;;;;4975302;28;20467;-63
2021/03/12 03:46:36;;;;;;;9.33;6.43;;;;;;;;;;4992968;28;20477;-63
2021/03/12 03:49:03;;;;;;;13.13;6.57;;;;;;;;;;4980958;28;20510;-63
2021/03/12 03:51:30;;;;;;;15.60;7.20;;;;;;;;;;4972953;28;20494;-63
2021/03/12 03:53:57;;;;;;;8.27;5.20;;;;;;;;;;4972457;28;21029;-63
2021/03/12 03:56:24;;;;;;;10.70;5.97;;;;;;;;;;4972204;28;21060;-64
2021/03/12 03:58:51;;;;;;;12.73;5.90;;;;;;;;;;4971955;28;20489;-64
2021/03/12 04:01:18;;;;;;;10.60;6.07;;;;;;;;;;4972048;28;20543;-63
2021/03/12 04:03:45;;;;;;;9.73;5.43;;;;;;;;;;4972326;28;20459;-63
2021/03/12 04:06:12;;;;;;;10.67;5.50;;;;;;;;;;4971324;28;21006;-63
2021/03/12 04:08:39;;;;;;;9.80;5.30;;;;;;;;;;4972445;28;21041;-63
2021/03/12 04:11:07;;;;;;;10.17;5.60;;;;;;;;;;4971677;28;20487;-63
2021/03/12 04:13:33;;;;;;;9.70;5.47;;;;;;;;;;4972282;28;20841;-63
2021/03/12 04:16:00;;;;;;;6.77;4.77;;;;;;;;;;4971945;28;20494;-63
2021/03/12 04:18:27;;;;;;;8.97;5.73;;;;;;;;;;4973715;28;20451;-63
2021/03/12 04:20:54;;;;;;;8.50;5.20;;;;;;;;;;4973218;28;20538;-63
2021/03/12 04:23:21;;;;;;;12.43;5.83;;;;;;;;;;4972472;28;20460;-63
2021/03/12 04:25:47;;;;;;;12.13;5.80;;;;;;;;;;4972136;28;20475;-63
2021/03/12 04:28:16;;;;;;;8.13;5.13;;;;;;;;;;4972078;28;20538;-64
2021/03/12 04:30:42;;;;;;;7.40;4.77;;;;;;;;;;4972187;28;20538;-64
2021/03/12 04:33:09;;;;;;;9.40;4.90;;;;;;;;;;4971854;28;20460;-63
2021/03/12 04:35:36;;;;;;;10.70;5.63;;;;;;;;;;4970949;28;20475;-63
2021/03/12 04:38:03;;;;;;;9.73;5.07;;;;;;;;;;4971865;28;20517;-63
2021/03/12 04:40:30;;;;;;;9.50;5.17;;;;;;;;;;4971899;28;20462;-63
2021/03/12 04:42:57;;;;;;;9.50;5.43;;;;;;;;;;4971822;28;20455;-63
2021/03/12 04:45:25;;;;;;;9.90;5.90;;;;;;;;;;4978160;28;20477;-64
2021/03/12 04:47:52;;;;;;;12.17;4.40;;;;;;;;;;4977744;28;20542;-64
2021/03/12 04:50:18;;;;;;;9.50;4.40;;;;;;;;;;4971551;28;20483;-63
2021/03/12 04:52:45;;;;;;;8.47;5.10;;;;;;;;;;4972194;28;20451;-63
2021/03/12 04:55:12;;;;;;;11.33;5.60;;;;;;;;;;4950231;28;614431;-63
2021/03/12 04:57:39;;;;;;;8.83;4.90;;;;;;;;;;4972668;28;20750;-63
2021/03/12 05:00:07;;;;;;;9.20;4.60;;;;;;;;;;4972362;28;20447;-64
2021/03/12 05:02:34;;;;;;;7.80;4.70;;;;;;;;;;4973136;28;20466;-64
2021/03/12 05:05:03;;;;;;;6.63;3.80;;;;;;;;;;4976105;28;20471;-64
2021/03/12 05:07:29;;;;;;;9.83;5.30;;;;;;;;;;4976529;28;20559;-63
2021/03/12 05:09:56;;;;;;;8.80;5.77;;;;;;;;;;4976047;28;20566;-63
2021/03/12 05:12:23;;;;;;;14.13;6.33;;;;;;;;;;4975949;28;20451;-63
2021/03/12 05:14:49;;;;;;;7.57;5.77;;;;;;;;;;4976193;28;21074;-64
2021/03/12 05:17:16;;;;;;;11.10;6.30;;;;;;;;;;4975490;28;20550;-64
2021/03/12 05:19:43;;;;;;;6.83;4.50;;;;;;;;;;4976812;28;20457;-64
2021/03/12 05:22:10;;;;;;;9.70;5.63;;;;;;;;;;4975700;28;20534;-64
2021/03/12 05:24:36;;;;;;;8.73;5.70;;;;;;;;;;4976386;28;20467;-64
2021/03/12 05:27:03;;;;;;;11.83;6.00;;;;;;;;;;4975444;28;21032;-64
2021/03/12 05:29:30;;;;;;;17.37;6.13;;;;;;;;;;4976216;28;20459;-64
2021/03/12 05:31:56;;;;;;;11.83;6.17;;;;;;;;;;4975757;28;20458;-63
2021/03/12 05:34:23;;;;;;;12.90;5.60;;;;;;;;;;4976349;28;20447;-64
2021/03/12 05:36:50;;;;;;;12.07;5.30;;;;;;;;;;4975390;28;20559;-63
2021/03/12 05:39:19;;;;;;;9.93;5.80;;;;;;;;;;4975681;28;21227;-63
2021/03/12 05:41:46;;;;;;;9.60;5.53;;;;;;;;;;4975529;28;20509;-63
2021/03/12 05:44:13;;;;;;;10.70;5.63;;;;;;;;;;4975661;28;20475;-63
2021/03/12 05:46:41;;;;;;;11.77;6.17;;;;;;;;;;4975192;28;20475;-63
2021/03/12 05:49:09;;;;;;;11.30;6.47;;;;;;;;;;4975565;28;20553;-63
2021/03/12 05:51:36;;;;;;;9.90;5.80;;;;;;;;;;4975133;28;20486;-63
2021/03/12 05:54:04;;;;;;;11.67;6.20;;;;;;;;;;4975258;28;20458;-63
2021/03/12 05:56:30;;;;;;;9.67;5.60;;;;;;;;;;4974256;28;20486;-63
2021/03/12 05:58:58;;;;;;;7.87;5.73;;;;;;;;;;4974078;28;20551;-63
2021/03/12 06:01:25;;;;;;;12.00;5.87;;;;;;;;;;4975933;28;20451;-63
2021/03/12 06:03:51;;;;;;;8.90;6.40;;;;;;;;;;4974989;28;20893;-64
2021/03/12 06:06:18;;;;;;;9.23;4.60;;;;;;;;;;4974938;28;20529;-64
2021/03/12 06:08:44;;;;;;;14.13;5.93;;;;;;;;;;4969730;28;20527;-64
2021/03/12 06:11:12;;;;;;;9.83;6.83;;;;;;;;;;4974983;28;20483;-64
2021/03/12 06:13:48;;;;;;;8.80;5.37;;;;;;;;;;4974914;28;20951;-63
2021/03/12 06:16:22;;;;;;;9.30;5.60;;;;;;;;;;4972860;28;20482;-63
2021/03/12 06:19:09;;;;;;;7.60;5.70;;;;;;;;;;4974011;28;20526;-63
2021/03/12 06:21:36;;;;;;;10.67;5.80;;;;;;;;;;4965930;28;21028;-64
2021/03/12 06:24:03;;;;;;;11.20;5.53;;;;;;;;;;4974280;28;20458;-63
2021/03/12 06:26:44;;;;;;;12.80;5.83;;;;;;;;;;4974671;28;20479;-64
2021/03/12 06:29:11;;;;;;;9.87;5.10;;;;;;;;;;4974468;28;20459;-63
2021/03/12 06:31:37;;;;;;;14.87;5.67;;;;;;;;;;4974706;28;20483;-63
2021/03/12 06:34:11;;;;;;;12.83;5.57;;;;;;;;;;4974524;28;20796;-63
2021/03/12 06:36:37;;;;;;;12.57;5.80;;;;;;;;;;4968806;28;21073;-63
2021/03/12 06:39:04;;;;;;;6.97;3.63;;;;;;;;;;4972178;28;20899;-64
2021/03/12 06:41:38;;;;;;;7.73;3.13;;;;;;;;;;4972451;28;20951;-62
2021/03/12 06:44:23;;;;;;;8.10;3.37;;;;;;;;;;4973981;28;20455;-62
2021/03/12 06:46:50;;;;;;;6.50;3.17;;;;;;;;;;4972700;28;20834;-62
2021/03/12 06:49:17;;;;;;;5.83;2.30;;;;;;;;;;4974890;28;20538;-62
2021/03/12 06:51:53;;;;;;;8.53;3.13;;;;;;;;;;4973624;28;20495;-62
2021/03/12 06:54:20;;;;;;;9.37;2.80;;;;;;;;;;4964010;28;20467;-62
2021/03/12 06:56:47;;;;;;;4.30;2.53;;;;;;;;;;4974399;28;20467;-62
2021/03/12 06:59:14;;;;;;;6.50;2.93;;;;;;;;;;4973378;28;20554;-62
2021/03/12 07:01:41;;;;;;;4.30;2.13;;;;;;;;;;4972333;28;20467;-62
2021/03/12 07:04:12;;;;;;;5.97;2.70;;;;;;;;;;4972264;28;20471;-62
2021/03/12 07:06:45;;;;;;;4.37;2.20;;;;;;;;;;4972888;28;20570;-62
2021/03/12 07:09:12;;;;;;;6.00;2.57;;;;;;;;;;4973654;28;20470;-62
2021/03/12 07:11:39;;;;;;;6.63;1.80;;;;;;;;;;4974839;28;20486;-62
2021/03/12 07:14:06;;;;;;;6.63;2.70;;;;;;;;;;4973717;28;20555;-62
2021/03/12 07:16:32;;;;;;;4.70;2.87;;;;;;;;;;4972638;28;20990;-62
2021/03/12 07:18:59;;;;;;;5.80;2.70;;;;;;;;;;4972568;28;20471;-62
2021/03/12 07:21:28;;;;;;;6.13;2.80;;;;;;;;;;4971787;28;20498;-62
2021/03/12 07:23:57;;;;;;;4.10;2.40;;;;;;;;;;4973152;28;20475;-63
2021/03/12 07:26:24;;;;;;;9.63;2.47;;;;;;;;;;4972619;28;20471;-63
2021/03/12 07:28:53;;;;;;;4.00;2.20;;;;;;;;;;4973185;28;20474;-62
2021/03/12 07:31:20;;;;;;;3.73;2.23;;;;;;;;;;4972074;28;20495;-62
2021/03/12 07:33:51;;;;;;;3.83;2.10;;;;;;;;;;4973629;28;20451;-62
2021/03/12 07:36:21;;;;;;;5.37;2.20;;;;;;;;;;4973355;28;20479;-62
2021/03/12 07:38:49;;;;;;;4.37;1.93;;;;;;;;;;4973209;28;20455;-60
2021/03/12 07:41:15;;;;;;;8.20;2.30;;;;;;;;;;4972162;28;20455;-60
2021/03/12 07:43:42;;;;;;;5.60;2.20;;;;;;;;;;4971763;28;20451;-60
2021/03/12 07:46:09;;;;;;;6.67;1.97;;;;;;;;;;4972418;28;20929;-61
2021/03/12 07:48:36;;;;;;;5.30;2.53;;;;;;;;;;4973252;28;20651;-60
2021/03/12 07:51:04;;;;;;;8.93;2.90;;;;;;;;;;4967074;28;20480;-60
2021/03/12 07:53:44;;;;;;;7.00;2.67;;;;;;;;;;4972469;28;20470;-60
2021/03/12 07:56:12;;;;;;;5.00;1.80;;;;;;;;;;4998111;23;20511;-67
2021/03/12 07:59:03;;;;;;;5.30;2.27;;;;;;;;;;4938004;29;20519;-65
2021/03/12 08:01:46;;;;;;;5.07;2.07;;;;;;;;;;4934769;29;20453;-67
2021/03/12 08:04:27;;;;;;;5.23;2.10;;;;;;;;;;4925224;29;20457;-67
2021/03/12 08:06:54;;;;;;;5.50;1.87;;;;;;;;;;4934226;29;20465;-66
2021/03/12 08:09:34;;;;;;;4.20;2.37;;;;;;;;;;4934399;29;20516;-68
2021/03/12 08:12:01;;;;;;;6.57;2.57;;;;;;;;;;4915512;29;20576;-66
2021/03/12 08:14:30;;;;;;;5.20;2.07;;;;;;;;;;4934035;29;20489;-65
2021/03/12 08:17:19;;;;;;;3.90;2.37;;;;;;;;;;4933563;29;21021;-68
2021/03/12 08:19:49;;;;;;;7.20;3.30;;;;;;;;;;4933400;29;20450;-65
2021/03/12 08:22:35;;;;;;;8.23;3.67;;;;;;;;;;4935109;29;20963;-65
2021/03/12 08:25:02;;;;;;;11.93;3.87;;;;;;;;;;4934449;29;20488;-67
2021/03/12 08:27:43;;;;;;;11.13;4.00;;;;;;;;;;4933805;29;20484;-64
2021/03/12 08:30:10;;;;;;;9.10;4.50;;;;;;;;;;4933874;29;20519;-65
2021/03/12 08:32:38;;;;;;;7.80;3.87;;;;;;;;;;4933649;29;20453;-65
2021/03/12 08:35:05;;;;;;;6.97;3.60;;;;;;;;;;4933930;29;20961;-66
2021/03/12 08:37:41;;;;;;;11.97;4.97;;;;;;;;;;4934480;29;20477;-65
2021/03/12 08:40:26;;;;;;;9.93;4.67;;;;;;;;;;4915164;29;20445;-67
2021/03/12 08:42:58;;;;;;;7.80;4.20;;;;;;;;;;4919890;29;20850;-65
2021/03/12 08:45:34;;;;;;;6.13;4.03;;;;;;;;;;4919232;28;20465;-65
2021/03/12 08:48:11;;;;;;;6.13;3.60;;;;;;;;;;4946610;29;20536;-67
2021/03/12 08:50:38;;;;;;;7.40;3.90;;;;;;;;;;4934393;29;20477;-64
2021/03/12 08:53:06;;;;;;;8.40;4.10;;;;;;;;;;4933549;29;20453;-63
2021/03/12 08:55:33;;;;;;;7.07;4.23;;;;;;;;;;4933519;29;20572;-64
2021/03/12 08:58:12;;;;;;;6.70;3.50;;;;;;;;;;4932667;29;20831;-64
2021/03/12 09:00:39;;;;;;;8.00;4.27;;;;;;;;;;4933521;29;20465;-63
2021/03/12 09:03:15;;;;;;;6.03;3.77;;;;;;;;;;4933896;29;20472;-64
2021/03/12 09:05:42;;;;;;;7.03;3.70;;;;;;;;;;4933351;29;20487;-64
2021/03/12 09:08:09;;;;;;;5.90;3.93;;;;;;;;;;4933672;29;20548;-65
2021/03/12 09:10:36;;;;;;;7.60;4.00;;;;;;;;;;4933288;29;20575;-64
2021/03/12 09:13:03;;;;;;;6.87;3.93;;;;;;;;;;4933536;29;20468;-64
2021/03/12 09:15:30;;;;;;;5.27;4.00;;;;;;;;;;4942666;28;20456;-64
2021/03/12 09:17:57;;;;;;;6.97;3.87;;;;;;;;;;4946631;28;20453;-64
2021/03/12 09:20:25;;;;;;;4.93;3.40;;;;;;;;;;4933310;29;20543;-64
2021/03/12 09:22:53;;;;;;;7.03;4.00;;;;;;;;;;4933846;29;20457;-67
2021/03/12 09:25:26;;;;;;;6.70;3.63;;;;;;;;;;4932815;29;21024;-62
2021/03/12 09:28:04;;;;;;;5.83;3.50;;;;;;;;;;4934018;29;20452;-62
2021/03/12 09:30:32;;;;;;;6.77;4.27;;;;;;;;;;4933215;29;20480;-63
2021/03/12 09:32:59;;;;;;;9.00;4.43;;;;;;;;;;4933817;29;20860;-62
2021/03/12 09:35:26;;;;;;;9.90;4.47;;;;;;;;;;4932303;29;20488;-64
2021/03/12 09:37:54;;;;;;;7.60;4.87;;;;;;;;;;4934148;29;20534;-64
2021/03/12 09:40:28;;;;;;;9.17;5.20;;;;;;;;;;4933359;29;20458;-65
2021/03/12 09:42:55;;;;;;;7.00;4.33;;;;;;;;;;4941377;29;20448;-66
2021/03/12 09:45:22;;;;;;;7.07;3.90;;;;;;;;;;4944915;28;20563;-65
2021/03/12 09:47:50;;;;;;;8.13;4.70;;;;;;;;;;4943531;29;20457;-63
2021/03/12 09:50:17;;;;;;;6.87;4.10;;;;;;;;;;4939243;28;20480;-67
2021/03/12 09:52:44;;;;;;;9.80;4.40;;;;;;;;;;4936947;29;20464;-66
2021/03/12 09:55:11;;;;;;;4.07;2.47;;;;;;;;;;4935967;29;20453;-68
2021/03/12 09:57:38;;;;;;;5.57;4.20;;;;;;;;;;4940364;29;20484;-67
2021/03/12 10:00:06;;;;;;;7.47;3.80;;;;;;;;;;4946067;28;20461;-67
2021/03/12 10:02:33;;;;;;;7.47;4.30;;;;;;;;;;4941867;29;20464;-67
2021/03/12 10:05:01;;;;;;;9.10;4.47;;;;;;;;;;4936985;29;20456;-66
2021/03/12 10:07:36;;;;;;;7.33;4.33;;;;;;;;;;4935937;29;20473;-65
2021/03/12 10:10:11;;;;;;;8.17;4.83;;;;;;;;;;4935978;29;20945;-66
2021/03/12 10:12:40;;;;;;;8.17;4.90;;;;;;;;;;4936424;29;20453;-65
2021/03/12 10:15:11;;;;;;;8.57;4.67;;;;;;;;;;4935866;29;20449;-65
2021/03/12 10:17:38;;;;;;;11.93;5.17;;;;;;;;;;4936412;29;20552;-65
2021/03/12 10:20:07;;;;;;;8.17;5.27;;;;;;;;;;4936141;29;20496;-66
2021/03/12 10:22:34;;;;;;;9.07;5.17;;;;;;;;;;4936508;29;20457;-66
2021/03/12 10:25:06;;;;;;;6.87;5.30;;;;;;;;;;4936523;29;20832;-66
2021/03/12 10:27:34;;;;;;;7.90;5.20;;;;;;;;;;4939826;29;20472;-66
2021/03/12 10:30:05;;;;;;;8.90;5.37;;;;;;;;;;4940458;28;20588;-65
2021/03/12 10:32:32;;;;;;;10.83;5.70;;;;;;;;;;4943877;29;20449;-65
2021/03/12 10:35:00;;;;;;;17.00;12.53;;;;;;;;;;4936139;29;20512;-66
2021/03/12 10:37:33;;;;;;;8.00;5.73;;;;;;;;;;4935810;29;20480;-64
2021/03/12 10:40:00;;;;;;;8.13;5.33;;;;;;;;;;4935694;29;20450;-65
2021/03/12 10:42:28;;;;;;;9.00;5.60;;;;;;;;;;4935770;29;20446;-65
2021/03/12 10:44:56;;;;;;;7.43;5.13;;;;;;;;;;4935742;29;20573;-65
2021/03/12 10:47:23;;;;;;;7.67;5.17;;;;;;;;;;4936609;29;20580;-65
2021/03/12 10:49:49;;;;;;;9.23;5.10;;;;;;;;;;4945180;29;20544;-65
2021/03/12 10:52:31;;;;;;;9.80;5.10;;;;;;;;;;4939262;28;20988;-65
2021/03/12 10:54:58;;;;;;;7.80;4.80;;;;;;;;;;4927891;29;20849;-65
2021/03/12 10:57:35;;;;;;;7.00;4.87;;;;;;;;;;4934960;29;20495;-65
2021/03/12 11:00:02;;;;;;;8.23;5.27;;;;;;;;;;4935328;29;20453;-64
2021/03/12 11:02:32;;;;;;;7.03;4.87;;;;;;;;;;4934799;29;20493;-64
2021/03/12 11:04:59;;;;;;;9.37;5.63;;;;;;;;;;4934746;29;20460;-65
2021/03/12 11:07:25;;;;;;;8.33;5.77;;;;;;;;;;4934565;29;20567;-64
2021/03/12 11:09:53;;;;;;;8.40;4.97;;;;;;;;;;4935684;29;20472;-64
2021/03/12 11:12:19;;;;;;;8.30;5.33;;;;;;;;;;4935767;29;20539;-66
2021/03/12 11:14:47;;;;;;;7.70;5.53;;;;;;;;;;4935509;29;20450;-65
2021/03/12 11:17:14;;;;;;;10.57;5.63;;;;;;;;;;4949842;29;20483;-65
2021/03/12 11:19:40;;;;;;;12.27;5.40;;;;;;;;;;4948028;28;20517;-66
2021/03/12 11:22:07;;;;;;;7.73;5.90;;;;;;;;;;4935717;29;20475;-65
2021/03/12 11:24:34;;;;;;;9.87;5.50;;;;;;;;;;4935452;29;20453;-65
2021/03/12 11:27:01;;;;;;;9.77;5.57;;;;;;;;;;4935205;29;20473;-65
2021/03/12 11:29:30;;;;;;;9.77;5.80;;;;;;;;;;4935083;29;20464;-65
2021/03/12 11:31:59;;;;;;;10.40;5.80;;;;;;;;;;4949254;29;20991;-66
2021/03/12 11:34:25;;;;;;;8.13;5.63;;;;;;;;;;4941140;28;20477;-66
2021/03/12 11:36:54;;;;;;;7.50;5.73;;;;;;;;;;4935065;29;20967;-65
2021/03/12 11:39:20;;;;;;;8.23;5.80;;;;;;;;;;4931284;29;20472;-65
2021/03/12 11:41:47;;;;;;;9.77;6.40;;;;;;;;;;4935994;29;20458;-67
2021/03/12 11:44:15;;;;;;;8.87;6.13;;;;;;;;;;4935557;29;20500;-65
2021/03/12 11:46:41;;;;;;;8.13;6.13;;;;;;;;;;4934750;29;20485;-66
2021/03/12 11:49:08;;;;;;;12.33;5.83;;;;;;;;;;4935155;29;20560;-65
2021/03/12 11:51:34;;;;;;;9.10;6.17;;;;;;;;;;4934930;29;20584;-66
2021/03/12 11:54:01;;;;;;;8.17;5.37;;;;;;;;;;4934682;29;20456;-65
2021/03/12 11:56:28;;;;;;;6.37;5.30;;;;;;;;;;4934042;29;20539;-65
2021/03/12 11:58:54;;;;;;;7.20;5.57;;;;;;;;;;4934259;29;20454;-66
2021/03/12 12:01:22;;;;;;;9.63;5.70;;;;;;;;;;4934199;29;20600;-66
2021/03/12 12:03:48;;;;;;;6.87;5.10;;;;;;;;;;4934840;29;20456;-65
2021/03/12 12:06:15;;;;;;;7.73;5.53;;;;;;;;;;4934954;29;20500;-65
2021/03/12 12:08:42;;;;;;;9.37;5.37;;;;;;;;;;4935819;29;20453;-66
2021/03/12 12:11:08;;;;;;;6.30;4.70;;;;;;;;;;4934224;29;20497;-66
2021/03/12 12:13:35;;;;;;;8.10;5.03;;;;;;;;;;4951530;28;20533;-65
2021/03/12 12:16:02;;;;;;;4.90;3.90;;;;;;;;;;4933762;29;20756;-65
2021/03/12 12:18:29;;;;;;;8.87;5.33;;;;;;;;;;4934235;29;20744;-64
2021/03/12 12:20:56;;;;;;;7.77;5.03;;;;;;;;;;4944816;29;20463;-66
2021/03/12 12:23:22;;;;;;;11.10;5.07;;;;;;;;;;4944891;28;20463;-64
2021/03/12 12:25:49;;;;;;;6.47;4.33;;;;;;;;;;4933995;29;20477;-64
2021/03/12 12:28:16;;;;;;;7.20;4.60;;;;;;;;;;4933712;29;20544;-62
2021/03/12 12:30:42;;;;;;;6.43;4.70;;;;;;;;;;4942449;29;20497;-64
2021/03/12 12:33:09;;;;;;;8.13;4.30;;;;;;;;;;4947451;28;20459;-64
2021/03/12 12:35:38;;;;;;;6.73;4.30;;;;;;;;;;4934056;29;20457;-65
2021/03/12 12:38:05;;;;;;;9.60;4.67;;;;;;;;;;4934689;29;20468;-63
2021/03/12 12:40:31;;;;;;;5.70;3.80;;;;;;;;;;4934414;29;20979;-63
2021/03/12 12:42:58;;;;;;;11.53;4.53;;;;;;;;;;4933905;29;20540;-63
2021/03/12 12:45:25;;;;;;;6.40;4.00;;;;;;;;;;4914804;29;20938;-64
2021/03/12 12:47:51;;;;;;;5.23;3.80;;;;;;;;;;4917409;29;20464;-63
2021/03/12 12:50:18;;;;;;;7.80;3.30;;;;;;;;;;4934037;29;20516;-63
2021/03/12 12:52:46;;;;;;;8.20;4.00;;;;;;;;;;4933675;29;20811;-65
2021/03/12 12:55:13;;;;;;;6.93;3.77;;;;;;;;;;4932954;29;20827;-66
2021/03/12 12:57:40;;;;;;;9.33;4.10;;;;;;;;;;4933823;29;20493;-64
2021/03/12 13:00:07;;;;;;;7.33;4.00;;;;;;;;;;4934034;29;20453;-64
2021/03/12 13:02:34;;;;;;;6.50;4.50;;;;;;;;;;4934376;29;20448;-64
2021/03/12 13:05:00;;;;;;;7.27;4.23;;;;;;;;;;4933824;29;20491;-63
2021/03/12 13:07:27;;;;;;;6.57;4.00;;;;;;;;;;4934128;29;20469;-66
2021/03/12 13:09:54;;;;;;;8.20;4.10;;;;;;;;;;4934087;29;20476;-64
2021/03/12 13:12:21;;;;;;;8.30;4.37;;;;;;;;;;4933890;29;20493;-66
2021/03/12 13:14:49;;;;;;;9.50;4.60;;;;;;;;;;4933347;29;21038;-63
2021/03/12 13:17:17;;;;;;;10.33;4.50;;;;;;;;;;4933798;29;20563;-63
2021/03/12 13:19:44;;;;;;;6.67;4.40;;;;;;;;;;4933804;29;20492;-63
2021/03/12 13:22:11;;;;;;;7.00;4.70;;;;;;;;;;4933965;29;20453;-63
2021/03/12 13:24:38;;;;;;;7.40;4.80;;;;;;;;;;4935182;29;20574;-64
2021/03/12 13:27:06;;;;;;;7.70;4.47;;;;;;;;;;4941017;29;20567;-63
2021/03/12 13:29:33;;;;;;;7.03;4.13;;;;;;;;;;4938017;29;20539;-66
2021/03/12 13:31:59;;;;;;;5.73;3.83;;;;;;;;;;4937745;29;20488;-66
2021/03/12 13:34:26;;;;;;;6.73;4.00;;;;;;;;;;4937068;29;20502;-64
2021/03/12 13:36:53;;;;;;;7.50;4.10;;;;;;;;;;4937502;29;20472;-63
2021/03/12 13:39:20;;;;;;;6.87;5.07;;;;;;;;;;4937535;29;20464;-63
2021/03/12 13:41:46;;;;;;;6.60;3.93;;;;;;;;;;4937602;29;20453;-64
2021/03/12 13:44:15;;;;;;;7.73;3.87;;;;;;;;;;4937427;29;20549;-63
2021/03/12 13:46:43;;;;;;;4.80;3.20;;;;;;;;;;4936919;29;20469;-63
2021/03/12 13:49:10;;;;;;;8.60;4.00;;;;;;;;;;4947326;29;21002;-63
2021/03/12 13:51:37;;;;;;;7.20;4.37;;;;;;;;;;4943799;28;20476;-63
2021/03/12 13:54:03;;;;;;;10.13;4.60;;;;;;;;;;4941494;28;20876;-63
2021/03/12 13:56:30;;;;;;;9.57;4.03;;;;;;;;;;4961460;23;20567;-65
2021/03/12 13:58:56;;;;;;;13.20;4.80;;;;;;;;;;4968558;28;20483;-63
2021/03/12 14:01:24;;;;;;;9.00;5.10;;;;;;;;;;4974863;28;20459;-62
2021/03/12 14:03:50;;;;;;;9.93;4.57;;;;;;;;;;4966102;28;20472;-62
2021/03/12 14:06:18;;;;;;;7.63;4.47;;;;;;;;;;4955358;28;20558;-62
2021/03/12 14:08:45;;;;;;;5.80;3.70;;;;;;;;;;4967781;28;20495;-63
2021/03/12 14:11:12;;;;;;;6.93;4.63;;;;;;;;;;4975292;28;20590;-62
2021/03/12 14:13:39;;;;;;;9.00;4.10;;;;;;;;;;4966509;28;20456;-63
2021/03/12 14:16:06;;;;;;;7.50;3.53;;;;;;;;;;4973933;28;20559;-63
2021/03/12 14:18:33;;;;;;;8.63;4.57;;;;;;;;;;4972635;28;20487;-64
2021/03/12 14:21:00;;;;;;;7.20;4.17;;;;;;;;;;4955482;28;20992;-63
2021/03/12 14:23:26;;;;;;;7.80;4.70;;;;;;;;;;4959265;28;20472;-62
2021/03/12 14:25:53;;;;;;;10.13;5.30;;;;;;;;;;4954993;28;20472;-63
2021/03/12 14:28:20;;;;;;;8.63;5.27;;;;;;;;;;4966689;28;20487;-63
2021/03/12 14:30:47;;;;;;;6.30;4.37;;;;;;;;;;4955840;29;20494;-63
2021/03/12 14:33:13;;;;;;;8.97;4.47;;;;;;;;;;4965951;28;20847;-63
2021/03/12 14:35:41;;;;;;;9.13;6.00;;;;;;;;;;4973755;28;20943;-64
2021/03/12 14:38:07;;;;;;;11.43;5.30;;;;;;;;;;4973839;28;20492;-63
2021/03/12 14:40:34;;;;;;;8.37;4.97;;;;;;;;;;4974390;28;20467;-63
2021/03/12 14:43:01;;;;;;;12.53;5.70;;;;;;;;;;4971764;28;20467;-63
2021/03/12 14:45:27;;;;;;;8.97;5.70;;;;;;;;;;4974034;28;20476;-64